INFORMACIÓN METAR y TAF
METAR FOR LEAL
ADDS - METARS form results

(1937 UTC 10 April 2020)
Data provider http://aviationweather.gov/metar/data/
 
METAR text: LEAL 101930Z 07006KT CAVOK 16/11 Q1022 NOSIG
Conditions at: LEAL (ALICANTE/EL ALTE, ES) observed 1930 UTC 10 April 2020
Temperature: 16.0°C (61°F)
Dewpoint: 11.0°C (52°F) [RH = 72%]
Pressure (altimeter): 30.18 inches Hg (1022.0 mb)
Winds: from the ENE (70 degrees) at 7 MPH (6 knots; 3.1 m/s)
Visibility: 6 or more miles (10+ km)
Ceiling: ceiling and visibility are OK
Clouds: unknown
Weather: no significant weather observed at this time

METAR text: LEAL 101900Z 07005KT CAVOK 16/10 Q1022 NOSIG
Conditions at: LEAL (ALICANTE/EL ALTE, ES) observed 1900 UTC 10 April 2020
Temperature: 16.0°C (61°F)
Dewpoint: 10.0°C (50°F) [RH = 68%]
Pressure (altimeter): 30.18 inches Hg (1022.0 mb)
Winds: from the ENE (70 degrees) at 6 MPH (5 knots; 2.6 m/s)
Visibility: 6 or more miles (10+ km)
Ceiling: ceiling and visibility are OK
Clouds: unknown
Weather: no significant weather observed at this time

Forecast for: LEAL (ALICANTE/EL ALTE, ES)
Text: TAF LEAL 101700Z 1018/1118 08010KT 9999 FEW020 TX19/1112Z TN11/1106Z
Forecast period: 1800 to 1900 UTC 10 April 2020
Forecast type: FROM: standard forecast or significant change
Winds: from the E (80 degrees) at 12 MPH (10 knots; 5.1 m/s)
Visibility: 6 or more miles 10+ km)
Ceiling: at least 12,000 feet AGL
Clouds: few clouds at 2000 feet AGL
Weather: no significant weather forecast for this period
Text: BECMG 1019/1021 35003KT
Forecast period: 1900 UTC 10 April 2020 to 0800 UTC 11 April 2020
Forecast type: BECOMING: Conditions expected to become as follows by 2100 UTC 10 April 2020
Winds: from the N (350 degrees) at 3 MPH (3 knots; 1.5 m/s)
Visibility: 6 or more miles 10+ km)
Ceiling: at least 12,000 feet AGL
Clouds: few clouds at 2000 feet AGL
Weather: no significant weather forecast for this period
Text: BECMG 1108/1110 09008KT
Forecast period: 0800 to 1800 UTC 11 April 2020
Forecast type: BECOMING: Conditions expected to become as follows by 1000 UTC 11 April 2020
Winds: from the E (90 degrees) at 9 MPH (8 knots; 4.1 m/s)
Visibility: 6 or more miles 10+ km)
Ceiling: at least 12,000 feet AGL
Clouds: few clouds at 2000 feet AGL
Weather: no significant weather forecast for this period

 MAPA DE AEROPUERTO

 INFORMACIÓN DE PISTA
Pista 10 Longitud 9842 ft Ancho 148 ft
Elevación 142 ft Umbral desplazado 0 ft Rumbo de pista 100
Pista 28 Longitud 9842 ft Ancho 148 ft
Elevación 44 ft Umbral desplazado 0 ft Rumbo de pista 280

 FRECUANCIAS DEL AEROPUERTO
Tipo APP Nombre APP Frecuencia 118.8 MHZ
Tipo ATIS Nombre ATIS Frecuencia 113.8 MHZ
Tipo GND Nombre GND Frecuencia 121.7 MHZ
Tipo TWR Nombre TWR Frecuencia 118.15 MHZ

 RADIO AYUDAS DEL AEROPUERTO
Tipo VOR-DME Nombre Alicante Frecuencia 113800 KHZ
Tipo VOR-DME Nombre Alicante Frecuencia 114650 KHZ



Powered by Virtual Airlines Manager [v2.6.2]